createdAt,value
2022-08-05T00:02:22.008Z,2.60
2022-08-05T00:04:55.235Z,2.10
2022-08-05T00:08:00.620Z,1.93
2022-08-05T00:10:10.034Z,2.30
2022-08-05T00:12:56.208Z,2.40
2022-08-05T00:15:56.100Z,1.93
2022-08-05T00:18:21.758Z,2.20
2022-08-05T00:20:49.897Z,2.60
2022-08-05T00:23:16.816Z,2.03
2022-08-05T00:25:46.115Z,2.30
2022-08-05T00:28:13.435Z,2.40
2022-08-05T00:30:41.180Z,2.13
2022-08-05T00:33:15.721Z,2.10
2022-08-05T00:36:16.440Z,1.87
2022-08-05T00:38:44.641Z,1.70
2022-08-05T00:41:11.758Z,2.13
2022-08-05T00:43:46.561Z,1.70
2022-08-05T00:46:14.158Z,1.67
2022-08-05T00:48:50.672Z,2.23
2022-08-05T00:51:50.269Z,1.80
2022-08-05T00:54:06.273Z,1.53
2022-08-05T00:56:32.991Z,2.10
2022-08-05T00:59:00.304Z,2.10
2022-08-05T01:01:48.685Z,2.17
2022-08-05T01:04:15.670Z,1.70
2022-08-05T01:06:46.713Z,1.80
2022-08-05T01:09:19.824Z,2.23
2022-08-05T01:11:50.709Z,1.87
2022-08-05T01:14:28.049Z,2.30
2022-08-05T01:17:05.698Z,2.07
2022-08-05T01:19:57.042Z,1.93
2022-08-05T01:22:52.524Z,1.50
2022-08-05T01:25:43.543Z,1.90
2022-08-05T01:28:23.222Z,2.23
2022-08-05T01:30:59.388Z,2.00
2022-08-05T01:33:35.374Z,1.67
2022-08-05T01:36:12.988Z,2.73
2022-08-05T01:38:45.847Z,2.10
2022-08-05T01:41:21.784Z,1.73
2022-08-05T01:43:50.787Z,2.53
2022-08-05T01:46:43.031Z,2.40
2022-08-05T01:49:23.011Z,2.60
2022-08-05T01:51:56.346Z,2.97
2022-08-05T01:54:29.286Z,2.47
2022-08-05T01:58:29.945Z,2.90
2022-08-05T01:59:48.212Z,2.73
2022-08-05T02:02:17.683Z,2.60
2022-08-05T02:04:46.161Z,2.80
2022-08-05T02:07:21.672Z,2.13
2022-08-05T02:09:50.182Z,2.43
2022-08-05T02:12:42.087Z,2.20
2022-08-05T02:15:14.053Z,2.47
2022-08-05T02:18:31.263Z,2.43
2022-08-05T02:20:48.565Z,2.53
2022-08-05T02:23:18.347Z,2.43
2022-08-05T02:25:49.385Z,2.30
2022-08-05T02:28:29.316Z,2.30
2022-08-05T02:31:00.831Z,2.40
2022-08-05T02:33:35.944Z,2.37
2022-08-05T02:36:10.414Z,1.97
2022-08-05T02:38:42.779Z,2.53
2022-08-05T02:41:17.342Z,1.90
2022-08-05T02:44:02.307Z,2.67
2022-08-05T02:46:35.322Z,2.03
2022-08-05T02:49:02.486Z,1.67
2022-08-05T02:52:02.918Z,2.10
2022-08-05T02:54:36.465Z,1.80
2022-08-05T02:57:10.172Z,1.93
2022-08-05T02:59:54.871Z,2.30
2022-08-05T03:02:28.109Z,2.10
2022-08-05T03:04:57.248Z,1.93
2022-08-05T03:07:59.323Z,1.70
2022-08-05T03:10:15.917Z,2.07
2022-08-05T03:12:51.926Z,1.60
2022-08-05T03:15:19.926Z,2.07
2022-08-05T03:17:46.529Z,1.80
2022-08-05T03:20:13.626Z,2.40
2022-08-05T03:22:44.066Z,2.70
2022-08-05T03:25:33.445Z,2.63
2022-08-05T03:28:01.838Z,2.60
2022-08-05T03:30:33.940Z,2.53
2022-08-05T03:33:02.566Z,2.17
2022-08-05T03:35:30.970Z,3.10
2022-08-05T03:38:00.979Z,2.20
2022-08-05T03:40:31.852Z,2.37
2022-08-05T03:43:15.797Z,2.80
2022-08-05T03:45:57.386Z,2.60
2022-08-05T03:48:29.582Z,2.93
2022-08-05T03:52:38.611Z,2.43
2022-08-05T03:55:53.788Z,2.67
2022-08-05T03:56:47.621Z,2.87
2022-08-05T03:59:24.577Z,2.60
2022-08-05T04:01:53.535Z,2.40
2022-08-05T04:04:26.910Z,2.97
2022-08-05T04:06:54.769Z,2.80
2022-08-05T04:09:26.597Z,2.57
2022-08-05T04:11:56.731Z,2.37
2022-08-05T04:14:29.836Z,2.47
2022-08-05T04:16:58.759Z,3.10
2022-08-05T04:19:25.436Z,2.50
2022-08-05T04:22:08.467Z,2.17
2022-08-05T04:24:43.828Z,2.40
2022-08-05T04:27:13.847Z,2.37
2022-08-05T04:29:42.438Z,2.40
2022-08-05T04:32:09.780Z,2.40
2022-08-05T04:34:40.908Z,2.73
2022-08-05T04:37:09.847Z,2.50
2022-08-05T04:39:37.657Z,2.20
2022-08-05T04:42:06.176Z,2.63
2022-08-05T04:44:33.112Z,3.17
2022-08-05T04:46:59.801Z,4.70
2022-08-05T04:49:39.148Z,6.57
2022-08-05T04:52:22.524Z,6.07
2022-08-05T04:54:49.402Z,6.40
2022-08-05T04:57:16.218Z,4.80
2022-08-05T04:59:42.846Z,5.43
2022-08-05T05:02:36.914Z,5.23
2022-08-05T05:05:02.229Z,5.57
2022-08-05T05:07:32.345Z,6.53
2022-08-05T05:10:02.152Z,6.90
2022-08-05T05:12:29.211Z,6.70
2022-08-05T05:14:55.861Z,7.27
2022-08-05T05:17:24.704Z,7.03
2022-08-05T05:20:10.003Z,6.77
2022-08-05T05:22:41.016Z,7.67
2022-08-05T05:25:16.182Z,5.97
2022-08-05T05:27:48.525Z,6.60
2022-08-05T05:30:29.679Z,6.30
2022-08-05T05:33:00.956Z,7.40
2022-08-05T05:35:34.256Z,7.60
2022-08-05T05:38:09.150Z,8.27
2022-08-05T05:40:38.845Z,7.50
2022-08-05T05:43:10.328Z,7.50
2022-08-05T05:45:36.899Z,8.30
2022-08-05T05:48:16.115Z,6.90
2022-08-05T05:50:44.542Z,6.90
2022-08-05T05:53:22.271Z,7.90
2022-08-05T05:55:52.531Z,8.03
2022-08-05T05:58:31.621Z,8.47
2022-08-05T06:01:02.551Z,8.77
2022-08-05T06:03:54.002Z,8.90
2022-08-05T06:06:28.008Z,7.83
2022-08-05T06:08:58.438Z,8.43
2022-08-05T06:11:25.272Z,6.60
2022-08-05T06:13:54.152Z,7.03
2022-08-05T06:16:28.927Z,7.33
2022-08-05T06:19:01.246Z,6.87
2022-08-05T06:21:36.531Z,7.00
2022-08-05T06:24:12.469Z,6.80
2022-08-05T06:26:51.316Z,6.27
2022-08-05T06:29:23.510Z,6.63
2022-08-05T06:32:21.117Z,7.57
2022-08-05T06:34:53.429Z,8.37
2022-08-05T06:37:56.251Z,9.17
2022-08-05T06:40:09.971Z,9.90
2022-08-05T06:42:37.217Z,10.87
2022-08-05T06:45:08.654Z,10.80
2022-08-05T06:48:37.163Z,11.43
2022-08-05T06:50:22.733Z,12.37
2022-08-05T06:52:58.696Z,11.27
2022-08-05T06:55:30.256Z,11.77
2022-08-05T06:58:11.727Z,12.27
2022-08-05T07:00:49.546Z,12.97
2022-08-05T07:03:17.472Z,12.47
2022-08-05T07:05:44.649Z,11.77
2022-08-05T07:08:13.141Z,11.80
2022-08-05T07:10:53.061Z,11.47
2022-08-05T07:13:58.042Z,12.50
2022-08-05T07:18:02.125Z,12.40
2022-08-05T07:20:16.443Z,12.70
2022-08-05T07:22:22.013Z,11.73
2022-08-05T07:24:56.458Z,12.87
2022-08-05T07:27:23.313Z,14.10
2022-08-05T07:30:25.451Z,12.53
2022-08-05T07:32:44.243Z,12.13
2022-08-05T07:36:03.191Z,13.00
2022-08-05T07:38:04.127Z,11.23
2022-08-05T07:40:33.095Z,11.43
2022-08-05T07:43:04.781Z,12.17
2022-08-05T07:45:56.979Z,12.13
2022-08-05T07:49:00.876Z,11.23
2022-08-05T07:51:23.644Z,11.27
2022-08-05T07:53:58.074Z,11.93
2022-08-05T07:57:02.578Z,11.27
2022-08-05T07:59:11.179Z,12.70
2022-08-05T08:01:41.542Z,11.77
2022-08-05T08:04:34.323Z,11.60
2022-08-05T08:07:05.616Z,11.43
2022-08-05T08:09:34.179Z,11.40
2022-08-05T08:12:09.026Z,10.40
2022-08-05T08:14:38.082Z,10.73
2022-08-05T08:17:10.779Z,11.53
2022-08-05T08:20:22.275Z,11.03
2022-08-05T08:22:30.543Z,10.03
2022-08-05T08:25:02.845Z,9.97
2022-08-05T08:27:39.892Z,9.53
2022-08-05T08:30:30.028Z,9.63
2022-08-05T08:33:02.523Z,9.67
2022-08-05T08:35:41.511Z,9.13
2022-08-05T08:38:35.470Z,9.67
2022-08-05T08:41:08.158Z,8.23
2022-08-05T08:45:25.238Z,8.33
2022-08-05T08:46:27.310Z,8.20
2022-08-05T08:49:08.019Z,8.40
2022-08-05T08:52:03.941Z,8.23
2022-08-05T08:54:36.449Z,8.13
2022-08-05T08:57:11.261Z,7.87
2022-08-05T08:59:41.891Z,7.77
2022-08-05T09:02:14.530Z,8.43
2022-08-05T09:04:47.710Z,7.63
2022-08-05T09:07:39.981Z,7.00
2022-08-05T09:10:19.138Z,7.97
2022-08-05T09:12:50.884Z,7.70
2022-08-05T09:15:19.962Z,7.17
2022-08-05T09:17:49.687Z,7.37
2022-08-05T09:20:21.067Z,7.40
2022-08-05T09:23:19.016Z,8.13
2022-08-05T09:26:00.039Z,8.30
2022-08-05T09:28:34.092Z,8.17
2022-08-05T09:32:38.797Z,7.90
2022-08-05T09:34:01.387Z,7.90
2022-08-05T09:36:56.085Z,8.50
2022-08-05T09:39:39.196Z,7.63
2022-08-05T09:42:23.720Z,7.17
2022-08-05T09:44:56.600Z,6.20
2022-08-05T09:47:29.468Z,6.40
2022-08-05T09:50:13.361Z,6.23
2022-08-05T09:52:45.396Z,5.87
2022-08-05T09:55:56.091Z,6.47
2022-08-05T09:57:59.861Z,5.83
2022-08-05T10:00:30.528Z,5.97
2022-08-05T10:02:58.608Z,5.40
2022-08-05T10:05:28.267Z,6.00
2022-08-05T10:08:35.672Z,5.50
2022-08-05T10:10:50.407Z,5.40
2022-08-05T10:13:47.262Z,6.13
2022-08-05T10:16:41.758Z,6.87
2022-08-05T10:19:19.163Z,6.20
2022-08-05T10:21:50.917Z,6.40
2022-08-05T10:24:21.313Z,5.23
2022-08-05T10:26:56.120Z,5.27
2022-08-05T10:30:41.520Z,4.37
2022-08-05T10:32:51.665Z,4.03
2022-08-05T10:35:03.607Z,4.20
2022-08-05T10:37:40.263Z,3.80
2022-08-05T10:40:33.932Z,3.50
2022-08-05T10:43:16.409Z,3.70
2022-08-05T10:46:06.314Z,2.97
2022-08-05T10:48:52.886Z,3.40
2022-08-05T10:51:29.156Z,3.80
2022-08-05T10:54:00.834Z,3.67
2022-08-05T10:56:30.341Z,3.57
2022-08-05T10:59:11.396Z,4.40
2022-08-05T11:01:54.998Z,4.23
2022-08-05T11:04:31.714Z,4.90
2022-08-05T11:07:04.833Z,4.53
2022-08-05T11:09:51.709Z,4.53
2022-08-05T11:12:54.385Z,5.00
2022-08-05T11:16:00.802Z,5.00
2022-08-05T11:18:32.739Z,5.07
2022-08-05T11:21:02.796Z,3.60
2022-08-05T11:24:04.963Z,4.17
2022-08-05T11:26:40.431Z,3.20
2022-08-05T11:29:42.630Z,2.93
2022-08-05T11:32:29.963Z,2.60
2022-08-05T11:34:57.422Z,2.60
2022-08-05T11:38:30.692Z,2.97
2022-08-05T11:41:03.513Z,3.20
2022-08-05T11:44:11.506Z,3.00
2022-08-05T11:46:58.188Z,3.37
2022-08-05T11:49:36.006Z,4.20
2022-08-05T11:52:11.547Z,3.80
2022-08-05T11:54:40.567Z,3.90
2022-08-05T11:57:25.040Z,3.80
2022-08-05T11:59:54.208Z,3.20
2022-08-05T12:02:34.535Z,4.13
2022-08-05T12:05:07.637Z,3.80
2022-08-05T12:08:03.823Z,3.73
2022-08-05T12:10:43.160Z,4.03
2022-08-05T12:13:16.401Z,3.17
2022-08-05T12:15:45.201Z,2.87
2022-08-05T12:18:20.614Z,2.80
2022-08-05T12:20:50.885Z,2.60
2022-08-05T12:23:17.469Z,2.53
2022-08-05T12:25:56.735Z,2.73
2022-08-05T12:28:35.137Z,2.63
2022-08-05T12:31:03.777Z,2.20
2022-08-05T12:33:36.499Z,2.33
2022-08-05T12:36:08.001Z,2.47
2022-08-05T12:38:39.485Z,2.63
2022-08-05T12:41:13.274Z,1.90
2022-08-05T12:43:55.519Z,2.20
2022-08-05T12:46:31.277Z,2.03
2022-08-05T12:49:13.292Z,1.70
2022-08-05T12:52:14.525Z,1.50
2022-08-05T12:54:35.705Z,2.03
2022-08-05T12:57:09.453Z,1.97
2022-08-05T13:01:57.017Z,1.90
2022-08-05T13:02:40.086Z,1.80
2022-08-05T13:05:08.346Z,2.10
2022-08-05T13:07:59.230Z,2.13
2022-08-05T13:10:28.632Z,2.33
2022-08-05T13:12:58.036Z,2.20
2022-08-05T13:15:41.721Z,2.10
2022-08-05T13:18:19.886Z,2.10
2022-08-05T13:20:49.260Z,2.10
2022-08-05T13:23:22.027Z,2.47
2022-08-05T13:25:58.700Z,2.23
2022-08-05T13:28:27.432Z,1.70
2022-08-05T13:30:54.153Z,1.97
2022-08-05T13:34:23.039Z,2.27
2022-08-05T13:36:09.227Z,1.90
2022-08-05T13:38:38.490Z,1.93
2022-08-05T13:41:12.966Z,1.93
2022-08-05T13:43:45.266Z,2.40
2022-08-05T13:47:01.517Z,2.37
2022-08-05T13:49:10.351Z,2.93
2022-08-05T13:51:41.130Z,2.53
2022-08-05T13:54:12.912Z,3.23
2022-08-05T13:56:51.022Z,3.13
2022-08-05T13:59:24.060Z,2.73
2022-08-05T14:02:00.160Z,2.83
2022-08-05T14:04:51.577Z,3.50
2022-08-05T14:08:01.223Z,2.83
2022-08-05T14:10:12.919Z,3.17
2022-08-05T14:16:51.158Z,2.60
2022-08-05T14:19:23.173Z,2.97
2022-08-05T14:22:08.832Z,2.40
2022-08-05T14:24:38.294Z,2.50
2022-08-05T14:27:18.146Z,2.40
2022-08-05T14:29:45.658Z,2.67
2022-08-05T14:32:27.115Z,2.83
2022-08-05T14:34:56.711Z,2.30
2022-08-05T14:37:44.740Z,2.47
2022-08-05T14:40:14.009Z,2.50
2022-08-05T14:42:43.597Z,2.30
2022-08-05T14:45:10.657Z,3.40
2022-08-05T14:48:03.416Z,2.90
2022-08-05T14:50:25.323Z,2.33
2022-08-05T14:52:58.307Z,2.60
2022-08-05T14:55:25.911Z,2.80
2022-08-05T14:58:10.925Z,2.83
2022-08-05T15:00:57.914Z,2.30
2022-08-05T15:03:25.789Z,2.57
2022-08-05T15:06:07.005Z,2.43
2022-08-05T15:09:01.485Z,2.13
2022-08-05T15:11:53.217Z,2.20
2022-08-05T15:14:33.380Z,2.53
2022-08-05T15:16:59.889Z,2.33
2022-08-05T15:19:26.972Z,2.30
2022-08-05T15:21:54.575Z,2.27
2022-08-05T15:24:26.962Z,2.40
2022-08-05T15:26:54.019Z,2.40
2022-08-05T15:29:22.686Z,2.20
2022-08-05T15:31:52.819Z,2.37
2022-08-05T15:34:33.051Z,2.30
2022-08-05T15:37:05.095Z,2.20
2022-08-05T15:41:03.540Z,2.30
2022-08-05T15:42:49.801Z,2.30
2022-08-05T15:45:09.746Z,2.40
2022-08-05T15:47:37.132Z,2.83
2022-08-05T15:50:07.338Z,2.17
2022-08-05T15:52:54.710Z,2.43
2022-08-05T15:55:24.660Z,2.53
2022-08-05T15:57:52.052Z,2.20
2022-08-05T16:00:26.502Z,2.53
2022-08-05T16:03:06.616Z,2.30
2022-08-05T16:05:34.276Z,2.20
2022-08-05T16:08:01.283Z,2.00
2022-08-05T16:10:27.837Z,2.20
2022-08-05T16:12:56.130Z,2.23
2022-08-05T16:15:23.486Z,2.10
2022-08-05T16:17:57.883Z,2.07
2022-08-05T16:20:25.396Z,2.00
2022-08-05T16:22:51.966Z,1.90
2022-08-05T16:25:19.177Z,2.03
2022-08-05T16:27:59.654Z,2.30
2022-08-05T16:30:30.657Z,2.27
2022-08-05T16:32:59.165Z,2.10
2022-08-05T16:35:28.657Z,2.20
2022-08-05T16:38:15.391Z,2.33
2022-08-05T16:40:55.043Z,1.70
2022-08-05T16:43:28.127Z,1.80
2022-08-05T16:46:04.178Z,1.50
2022-08-05T16:48:37.582Z,1.83
2022-08-05T16:51:09.677Z,1.80
2022-08-05T16:54:05.990Z,2.13
2022-08-05T16:56:25.817Z,1.93
2022-08-05T16:58:52.936Z,2.00
2022-08-05T17:01:20.617Z,2.10
2022-08-05T17:03:47.402Z,2.00
2022-08-05T17:06:16.524Z,2.30
2022-08-05T17:08:52.928Z,1.57
2022-08-05T17:11:23.940Z,1.20
2022-08-05T17:13:54.785Z,1.23
2022-08-05T17:16:36.640Z,1.20
2022-08-05T17:19:07.472Z,1.30
2022-08-05T17:21:37.062Z,1.50
2022-08-05T17:24:28.316Z,1.20
2022-08-05T17:26:56.632Z,0.73
2022-08-05T17:29:33.502Z,0.80
2022-08-05T17:32:08.298Z,0.70
2022-08-05T17:34:35.566Z,0.70
2022-08-05T17:37:02.226Z,0.60
2022-08-05T17:39:34.434Z,0.80
2022-08-05T17:42:20.188Z,0.63
2022-08-05T17:44:50.974Z,0.73
2022-08-05T17:47:21.920Z,0.50
2022-08-05T17:50:00.220Z,0.57
2022-08-05T17:52:52.576Z,0.73
2022-08-05T17:55:22.232Z,0.50
2022-08-05T17:57:50.284Z,0.60
2022-08-05T18:00:18.590Z,0.50
2022-08-05T18:02:47.137Z,0.60
2022-08-05T18:05:17.054Z,0.70
2022-08-05T18:07:44.533Z,0.60
2022-08-05T18:10:20.615Z,0.70
2022-08-05T18:12:48.909Z,0.50
2022-08-05T18:15:16.131Z,0.50
2022-08-05T18:18:00.830Z,0.60
2022-08-05T18:20:31.948Z,0.47
2022-08-05T18:23:04.844Z,1.20
2022-08-05T18:25:38.767Z,0.70
2022-08-05T18:28:06.400Z,0.40
2022-08-05T18:30:33.843Z,0.40
2022-08-05T18:33:01.549Z,0.50
2022-08-05T18:36:01.104Z,0.50
2022-08-05T18:38:19.402Z,0.87
2022-08-05T18:41:57.092Z,0.90
2022-08-05T18:43:42.625Z,0.60
2022-08-05T18:46:10.205Z,0.80
2022-08-05T18:48:41.701Z,0.90
2022-08-05T18:52:04.971Z,1.00
2022-08-05T18:54:14.843Z,0.77
2022-08-05T18:56:51.168Z,0.70
2022-08-05T18:59:43.559Z,0.80
2022-08-05T19:02:11.317Z,0.70
2022-08-05T19:05:02.949Z,0.77
2022-08-05T19:07:45.209Z,0.60
2022-08-05T19:10:13.437Z,0.63
2022-08-05T19:12:40.653Z,0.80
2022-08-05T19:15:25.241Z,0.60
2022-08-05T19:18:10.236Z,0.70
2022-08-05T19:20:41.681Z,0.53
2022-08-05T19:24:03.795Z,0.60
2022-08-05T19:26:01.890Z,0.60
2022-08-05T19:28:30.079Z,0.70
2022-08-05T19:30:57.311Z,0.70
2022-08-05T19:33:35.788Z,0.60
2022-08-05T19:36:03.646Z,0.70
2022-08-05T19:38:33.909Z,0.90
2022-08-05T19:41:02.778Z,0.77
2022-08-05T19:44:06.852Z,0.70
2022-08-05T19:46:30.048Z,0.73
2022-08-05T19:49:01.050Z,0.80
2022-08-05T19:52:04.227Z,0.80
2022-08-05T19:54:26.649Z,0.60
2022-08-05T19:56:58.678Z,0.90
2022-08-05T19:59:55.269Z,0.60
2022-08-05T20:02:14.018Z,0.60
2022-08-05T20:04:42.867Z,0.90
2022-08-05T20:07:13.309Z,0.70
2022-08-05T20:09:54.339Z,1.10
2022-08-05T20:12:24.099Z,0.83
2022-08-05T20:14:52.448Z,0.57
2022-08-05T20:17:19.759Z,0.80
2022-08-05T20:19:50.926Z,0.60
2022-08-05T20:22:26.770Z,1.00
2022-08-05T20:24:55.083Z,0.77
2022-08-05T20:27:26.706Z,0.93
2022-08-05T20:29:57.881Z,0.80
2022-08-05T20:32:26.582Z,0.87
2022-08-05T20:34:54.033Z,0.90
2022-08-05T20:38:04.741Z,1.23
2022-08-05T20:40:09.099Z,0.80
2022-08-05T20:42:36.233Z,1.00
2022-08-05T20:45:03.897Z,0.90
2022-08-05T20:47:32.739Z,0.93
2022-08-05T20:50:02.192Z,0.80
2022-08-05T20:52:29.519Z,0.93
2022-08-05T20:55:23.503Z,0.80
2022-08-05T20:57:44.798Z,0.90
2022-08-05T21:00:35.112Z,0.83
2022-08-05T21:03:08.161Z,1.20
2022-08-05T21:05:48.214Z,1.00
2022-08-05T21:08:21.246Z,0.80
2022-08-05T21:10:54.714Z,0.90
2022-08-05T21:13:26.515Z,1.10
2022-08-05T21:16:12.181Z,1.10
2022-08-05T21:18:39.219Z,1.00
2022-08-05T21:21:12.080Z,1.13
2022-08-05T21:23:39.161Z,1.10
2022-08-05T21:26:12.428Z,1.20
2022-08-05T21:28:47.851Z,1.30
2022-08-05T21:31:18.203Z,0.90
2022-08-05T21:33:47.575Z,1.30
2022-08-05T21:36:27.610Z,1.20
2022-08-05T21:38:56.890Z,1.37
2022-08-05T21:41:25.951Z,1.00
2022-08-05T21:44:03.671Z,1.30
2022-08-05T21:46:32.542Z,1.00
2022-08-05T21:49:01.822Z,1.00
2022-08-05T21:52:23.054Z,1.00
2022-08-05T21:54:14.964Z,1.10
2022-08-05T21:56:44.639Z,1.20
2022-08-05T21:59:24.252Z,1.40
2022-08-05T22:01:54.532Z,1.20
2022-08-05T22:04:21.528Z,1.47
2022-08-05T22:06:52.523Z,1.20
2022-08-05T22:09:21.093Z,1.30
2022-08-05T22:11:48.342Z,1.20
2022-08-05T22:14:35.603Z,1.27
2022-08-05T22:17:05.079Z,1.67
2022-08-05T22:20:02.724Z,1.10
2022-08-05T22:22:26.767Z,1.00
2022-08-05T22:25:21.101Z,1.40
2022-08-05T22:28:04.827Z,1.20
2022-08-05T22:30:55.315Z,1.10
2022-08-05T22:33:57.106Z,1.10
2022-08-05T22:36:10.856Z,1.30
2022-08-05T22:38:42.652Z,1.40
2022-08-05T22:41:10.192Z,1.50
2022-08-05T22:43:38.162Z,1.20
2022-08-05T22:46:13.215Z,1.83
2022-08-05T22:48:41.709Z,1.20
2022-08-05T22:51:16.099Z,1.40
2022-08-05T22:53:50.969Z,1.50
2022-08-05T22:56:29.712Z,1.40
2022-08-05T22:58:58.153Z,1.67
2022-08-05T23:01:50.730Z,1.40
2022-08-05T23:04:13.964Z,1.43
2022-08-05T23:06:41.218Z,1.20
2022-08-05T23:09:27.772Z,1.23
2022-08-05T23:11:56.137Z,1.47
2022-08-05T23:14:32.400Z,1.17
2022-08-05T23:17:23.976Z,1.73
2022-08-05T23:19:56.483Z,1.20
2022-08-05T23:22:27.531Z,1.23
2022-08-05T23:24:54.918Z,1.20
2022-08-05T23:27:22.693Z,1.20
2022-08-05T23:29:51.301Z,1.00
2022-08-05T23:32:22.913Z,1.33
2022-08-05T23:34:49.905Z,1.20
2022-08-05T23:37:17.744Z,1.13
2022-08-05T23:39:54.591Z,1.40
2022-08-05T23:42:28.999Z,1.20
2022-08-05T23:44:56.495Z,1.10
2022-08-05T23:47:24.798Z,1.20
2022-08-05T23:49:55.684Z,1.20
2022-08-05T23:52:27.778Z,1.10
2022-08-05T23:55:07.014Z,1.10
2022-08-05T23:57:35.588Z,1.23
